Flight Track Log - Related Links

Times and Time Zones

All times are in EDT time to prevent confusion due to time zone crossing. See the N5091V flight status page for this flight to view local times or setup timezone preferences in your user account.


Time Position Orientation Groundspeed Altitude Reporting Facility
EDT Latitude Longitude Course Direction KTS MPH feet Rate Location/Type
Sun 01:58:19 PM 40.8181 -85.3369 113° Southeast 145 167 2,300  Level Chicago Center
Sun 01:59:21 PM 40.8000 -85.2769 112° Southeast 147 169 2,800 488 Climbing Chicago Center
Sun 02:00:22 PM 40.7844 -85.2258 112° Southeast 148 170 3,300 488 Climbing Chicago Center
Sun 02:01:24 PM 40.7883 -85.1681 85° East 157 181 3,800 435 Climbing Chicago Center
Sun 02:02:00 PM 40.7337 -85.0758 113° Southeast  Level FlightAware Approximate
Sun 02:02:26 PM 40.7908 -85.1125 87° East 156 180 4,200  Level Chicago Center
Sun 02:03:00 PM 40.7169 -85.0225 113° Southeast  Level FlightAware Approximate
Sun 02:03:28 PM 40.7922 -85.0556 88° East 156 180 4,700  Level Chicago Center
Sun 02:04:30 PM 40.7942 -84.9972 87° East 157 181 4,900 97 Climbing Chicago Center
Sun 02:05:32 PM 40.8144 -84.9267 69° East 171 197 4,900 48 Level Chicago Center
Sun 02:06:34 PM 40.8331 -84.8672 68° East 174 200 5,000 48 Climbing Chicago Center
Sun 02:07:36 PM 40.8531 -84.8078 66° East 174 200 5,000  Level Chicago Center
Sun 02:08:38 PM 40.8725 -84.7481 67° East 176 203 5,000  Level Chicago Center
Sun 02:09:40 PM 40.8886 -84.6864 71° East 177 204 5,000  Level Chicago Center
Sun 02:10:42 PM 40.8881 -84.6208 91° East 179 206 5,000  Level Chicago Center
Sun 02:11:44 PM 40.8869 -84.5433 91° East 178 205 5,000 53 Level Chicago Center
Sun 02:12:36 PM 40.8714 -84.4925 112° Southeast 177 204 5,100 53 Climbing Indianapolis Center
Sun 02:13:38 PM 40.8656 -84.4233 96° East 178 205 5,100  Level Indianapolis Center
Sun 02:14:40 PM 40.8594 -84.3572 97° East 184 212 5,100  Level Indianapolis Center
Sun 02:15:42 PM 40.8553 -84.2911 95° East 178 205 5,100  Level Indianapolis Center
Sun 02:17:45 PM 40.8458 -84.1619 95° East 173 199 5,100  Level Indianapolis Center
Sun 02:18:47 PM 40.8394 -84.0822 96° East 185 213 5,100  Level Indianapolis Center
Sun 02:19:49 PM 40.8236 -84.0200 109° East 188 216 5,100  Level Indianapolis Center
Sun 02:20:40 PM 40.7967 -83.9825 133° Southeast 169 194 5,100  Level Indianapolis Center
Sun 02:21:41 PM 40.7625 -83.9367 135° Southeast 172 198 5,100 -45 Level Indianapolis Center
Sun 02:22:54 PM 40.7206 -83.8817 135° Southeast 171 197 5,000 -47 Descending Indianapolis Center
Sun 02:23:48 PM 40.6900 -83.8419 135° Southeast 171 197 5,000  Level Indianapolis Center
Sun 02:24:49 PM 40.6553 -83.8017 139° Southeast 164 189 5,000  Level Indianapolis Center
Sun 02:25:50 PM 40.6228 -83.7592 135° Southeast 164 189 5,000  Level Indianapolis Center
Sun 02:27:02 PM 40.5806 -83.7069 137° Southeast 167 192 5,000  Level Indianapolis Center
Sun 02:28:03 PM 40.5481 -83.6644 135° Southeast 170 196 5,000  Level Indianapolis Center
Sun 02:29:06 PM 40.5147 -83.6178 133° Southeast 170 196 5,000  Level Indianapolis Center
Sun 02:29:46 PM 40.4908 -83.5886 137° Southeast 173 199 5,000  Level Indianapolis Center
Sun 02:30:08 PM 40.4794 -83.5739 135° Southeast 172 198 5,000  Level Indianapolis Center
Sun 02:31:05 PM 40.4467 -83.5339 137° Southeast 167 192 5,000 -60 Level Indianapolis Center
Sun 02:31:48 PM 40.4197 -83.5003 136° Southeast 167 192 4,900 -182 Descending Indianapolis Center
Sun 02:32:11 PM 40.4111 -83.4883 133° Southeast 169 194 4,800 -456 Descending Indianapolis Center
Sun 02:33:07 PM 40.3736 -83.4428 137° Southeast 180 207 4,300 -414 Descending Indianapolis Center
Sun 02:34:07 PM 40.3342 -83.4106 148° Southeast 169 194 4,000 -175 Descending Indianapolis Center
Sun 02:34:50 PM 40.3086 -83.3881 146° Southeast 158 182 4,000  Level Indianapolis Center
Sun 02:35:17 PM 40.2983 -83.3778 143° Southeast 165 190 4,000 -98 Level Indianapolis Center
Sun 02:35:51 PM 40.2728 -83.3619 155° Southeast 153 176 3,900 -387 Descending Indianapolis Center
Sun 02:36:19 PM 40.2544 -83.3481 150° Southeast 156 180 3,600 -537 Descending Indianapolis Center
Sun 02:36:58 PM 40.2283 -83.3375 163° South 150 173 3,300 -484 Descending Indianapolis Center
Sun 02:37:21 PM 40.2150 -83.3281 152° Southeast 152 175 3,100 -300 Descending Indianapolis Center
Sun 02:37:58 PM 40.1928 -83.3086 146° Southeast 145 167 3,000 -97 Descending Indianapolis Center
Sun 02:38:23 PM 40.1806 -83.2994 150° Southeast 148 170 3,000  Level Indianapolis Center
Sun 02:38:59 PM 40.1581 -83.2961 174° South 129 148 3,000  Level Indianapolis Center
Sun 02:39:25 PM 40.1456 -83.2978 186° South 135 155 3,000  Level Indianapolis Center
Sun 02:40:00 PM 40.1244 -83.2978 180° South 122 140 3,000  Level Indianapolis Center
Sun 02:40:27 PM 40.1128 -83.2967 176° South 123 142 3,000  Level Indianapolis Center
Sun 02:41:01 PM 40.0931 -83.2967 180° South 104 120 3,000  Level Indianapolis Center
Sun 02:41:29 PM 40.0886 -83.2814 111° Southeast 123 142 3,000  Level Indianapolis Center
Sun 02:42:02 PM 40.0858 -83.2522 97° East 123 142 3,000  Level Indianapolis Center
Sun 02:42:31 PM 40.0811 -83.2386 114° Southeast 123 142 3,000  Level Indianapolis Center
Sun 02:43:03 PM 40.0717 -83.2122 115° Southeast 125 144 3,000 -194 Level Indianapolis Center
Sun 02:43:33 PM 40.0708 -83.1986 95° East 119 137 2,800 -800 Descending Indianapolis Center
Sun 02:44:03 PM 40.0750 -83.1664 80° East 138 159 2,200 -885 Descending Indianapolis Center
Sun 02:44:34 PM 40.0758 -83.1431 87° East 128 147 1,900 -590 Descending Indianapolis Center
Sun 02:45:04 PM 40.0756 -83.1283 91° East 99 114 1,600 -387 Descending Indianapolis Center
Sun 02:45:36 PM 40.0761 -83.1139 87° East 113 130 1,500 -393 Descending Indianapolis Center
Sun 02:46:05 PM 40.0758 -83.0956 91° East 84 97 1,200 -387 Descending Indianapolis Center
Sun 02:46:38 PM 40.0761 -83.0756 89° East 103 119 1,100 -182 Descending Indianapolis Center
Sun 02:48:00 PM 40.0798 -83.0732 96° East  Level Estimated

Login

Don't have an account? Register now (free) for customized features, flight alerts, and more!